sensor_id;sensor_type;location;lat;lon;timestamp;temperature;humidity
21734;DHT22;11029;47.820;10.534;2022-08-04T00:01:49;18.30;63.20
21734;DHT22;11029;47.820;10.534;2022-08-04T00:07:15;18.30;63.10
21734;DHT22;11029;47.820;10.534;2022-08-04T00:09:58;18.20;63.20
21734;DHT22;11029;47.820;10.534;2022-08-04T00:12:28;18.20;63.40
21734;DHT22;11029;47.820;10.534;2022-08-04T00:15:00;18.10;63.80
21734;DHT22;11029;47.820;10.534;2022-08-04T00:17:48;18.10;63.80
21734;DHT22;11029;47.820;10.534;2022-08-04T00:20:18;18.10;63.50
21734;DHT22;11029;47.820;10.534;2022-08-04T00:22:46;18.10;63.70
21734;DHT22;11029;47.820;10.534;2022-08-04T00:25:13;18.10;63.40
21734;DHT22;11029;47.820;10.534;2022-08-04T00:27:40;18.00;63.00
21734;DHT22;11029;47.820;10.534;2022-08-04T00:30:07;18.00;63.50
21734;DHT22;11029;47.820;10.534;2022-08-04T00:32:34;18.00;63.50
21734;DHT22;11029;47.820;10.534;2022-08-04T00:35:02;18.00;63.40
21734;DHT22;11029;47.820;10.534;2022-08-04T00:37:29;18.00;63.10
21734;DHT22;11029;47.820;10.534;2022-08-04T00:39:58;17.90;63.30
21734;DHT22;11029;47.820;10.534;2022-08-04T00:54:23;17.40;64.20
21734;DHT22;11029;47.820;10.534;2022-08-04T00:59:43;17.30;64.70
21734;DHT22;11029;47.820;10.534;2022-08-04T01:05:30;17.40;64.40
21734;DHT22;11029;47.820;10.534;2022-08-04T01:08:22;17.30;65.00
21734;DHT22;11029;47.820;10.534;2022-08-04T01:11:20;17.30;64.60
21734;DHT22;11029;47.820;10.534;2022-08-04T01:16:26;17.30;64.70
21734;DHT22;11029;47.820;10.534;2022-08-04T01:18:58;17.30;64.70
21734;DHT22;11029;47.820;10.534;2022-08-04T01:27:02;17.30;64.60
21734;DHT22;11029;47.820;10.534;2022-08-04T01:29:39;17.20;64.80
21734;DHT22;11029;47.820;10.534;2022-08-04T01:32:20;17.20;64.90
21734;DHT22;11029;47.820;10.534;2022-08-04T01:35:13;17.10;65.10
21734;DHT22;11029;47.820;10.534;2022-08-04T01:38:15;17.10;64.90
21734;DHT22;11029;47.820;10.534;2022-08-04T01:40:51;17.10;64.40
21734;DHT22;11029;47.820;10.534;2022-08-04T01:43:19;17.10;64.40
21734;DHT22;11029;47.820;10.534;2022-08-04T01:45:50;16.90;65.30
21734;DHT22;11029;47.820;10.534;2022-08-04T01:48:22;16.80;65.70
21734;DHT22;11029;47.820;10.534;2022-08-04T01:50:52;16.80;65.70
21734;DHT22;11029;47.820;10.534;2022-08-04T01:53:20;16.80;65.70
21734;DHT22;11029;47.820;10.534;2022-08-04T01:55:48;16.70;66.60
21734;DHT22;11029;47.820;10.534;2022-08-04T01:58:23;16.60;67.00
21734;DHT22;11029;47.820;10.534;2022-08-04T02:01:00;16.60;66.90
21734;DHT22;11029;47.820;10.534;2022-08-04T02:03:36;16.60;67.20
21734;DHT22;11029;47.820;10.534;2022-08-04T02:10:00;16.70;66.30
21734;DHT22;11029;47.820;10.534;2022-08-04T02:13:01;16.80;65.60
21734;DHT22;11029;47.820;10.534;2022-08-04T02:15:42;16.70;65.80
21734;DHT22;11029;47.820;10.534;2022-08-04T02:20:49;16.70;65.40
21734;DHT22;11029;47.820;10.534;2022-08-04T02:23:36;16.70;65.60
21734;DHT22;11029;47.820;10.534;2022-08-04T02:26:06;16.70;65.60
21734;DHT22;11029;47.820;10.534;2022-08-04T02:31:50;16.60;66.10
21734;DHT22;11029;47.820;10.534;2022-08-04T02:34:24;16.60;65.90
21734;DHT22;11029;47.820;10.534;2022-08-04T02:36:54;16.60;65.90
21734;DHT22;11029;47.820;10.534;2022-08-04T02:39:22;16.50;65.70
21734;DHT22;11029;47.820;10.534;2022-08-04T02:41:49;16.60;65.60
21734;DHT22;11029;47.820;10.534;2022-08-04T02:44:21;16.50;66.40
21734;DHT22;11029;47.820;10.534;2022-08-04T02:46:53;16.40;66.90
21734;DHT22;11029;47.820;10.534;2022-08-04T02:49:21;16.40;67.30
21734;DHT22;11029;47.820;10.534;2022-08-04T02:51:53;16.50;67.70
21734;DHT22;11029;47.820;10.534;2022-08-04T02:54:40;16.40;66.90
21734;DHT22;11029;47.820;10.534;2022-08-04T02:57:10;16.30;66.80
21734;DHT22;11029;47.820;10.534;2022-08-04T03:02:28;16.20;67.00
21734;DHT22;11029;47.820;10.534;2022-08-04T03:04:57;16.20;67.30
21734;DHT22;11029;47.820;10.534;2022-08-04T03:07:38;16.20;67.10
21734;DHT22;11029;47.820;10.534;2022-08-04T03:10:35;16.20;67.20
21734;DHT22;11029;47.820;10.534;2022-08-04T03:13:37;16.20;66.40
21734;DHT22;11029;47.820;10.534;2022-08-04T03:19:50;16.20;66.70
21734;DHT22;11029;47.820;10.534;2022-08-04T03:22:49;16.20;66.70
21734;DHT22;11029;47.820;10.534;2022-08-04T03:34:18;16.30;66.10
21734;DHT22;11029;47.820;10.534;2022-08-04T03:37:11;16.20;66.60
21734;DHT22;11029;47.820;10.534;2022-08-04T03:39:51;16.20;66.70
21734;DHT22;11029;47.820;10.534;2022-08-04T03:42:31;16.10;67.30
21734;DHT22;11029;47.820;10.534;2022-08-04T03:50:49;16.00;68.00
21734;DHT22;11029;47.820;10.534;2022-08-04T03:57:14;16.00;67.70
21734;DHT22;11029;47.820;10.534;2022-08-04T03:59:50;16.10;67.00
21734;DHT22;11029;47.820;10.534;2022-08-04T04:07:57;16.00;67.70
21734;DHT22;11029;47.820;10.534;2022-08-04T04:16:57;15.90;68.00
21734;DHT22;11029;47.820;10.534;2022-08-04T04:25:18;16.00;67.70
21734;DHT22;11029;47.820;10.534;2022-08-04T04:28:18;16.00;68.10
21734;DHT22;11029;47.820;10.534;2022-08-04T04:31:32;16.00;68.60
21734;DHT22;11029;47.820;10.534;2022-08-04T04:39:44;16.10;68.00
21734;DHT22;11029;47.820;10.534;2022-08-04T04:42:27;16.20;67.30
21734;DHT22;11029;47.820;10.534;2022-08-04T04:54:06;16.50;66.90
21734;DHT22;11029;47.820;10.534;2022-08-04T04:56:44;16.40;67.70
21734;DHT22;11029;47.820;10.534;2022-08-04T04:59:14;16.40;67.80
21734;DHT22;11029;47.820;10.534;2022-08-04T05:18:39;16.90;67.90
21734;DHT22;11029;47.820;10.534;2022-08-04T05:23:59;17.20;67.70
21734;DHT22;11029;47.820;10.534;2022-08-04T05:26:31;17.30;67.50
21734;DHT22;11029;47.820;10.534;2022-08-04T05:29:02;17.40;67.60
21734;DHT22;11029;47.820;10.534;2022-08-04T05:31:35;17.60;67.10
21734;DHT22;11029;47.820;10.534;2022-08-04T05:34:04;17.70;66.80
21734;DHT22;11029;47.820;10.534;2022-08-04T05:36:39;17.80;66.70
21734;DHT22;11029;47.820;10.534;2022-08-04T05:39:39;18.00;66.40
21734;DHT22;11029;47.820;10.534;2022-08-04T05:42:13;18.10;65.90
21734;DHT22;11029;47.820;10.534;2022-08-04T05:44:41;18.30;65.50
21734;DHT22;11029;47.820;10.534;2022-08-04T05:47:15;18.50;65.40
21734;DHT22;11029;47.820;10.534;2022-08-04T05:49:43;18.50;65.90
21734;DHT22;11029;47.820;10.534;2022-08-04T05:52:27;18.60;65.80
21734;DHT22;11029;47.820;10.534;2022-08-04T05:54:55;18.70;65.80
21734;DHT22;11029;47.820;10.534;2022-08-04T05:57:24;18.80;66.00
21734;DHT22;11029;47.820;10.534;2022-08-04T05:59:52;18.90;65.90
21734;DHT22;11029;47.820;10.534;2022-08-04T06:02:22;19.00;65.20
21734;DHT22;11029;47.820;10.534;2022-08-04T06:04:52;19.20;64.90
21734;DHT22;11029;47.820;10.534;2022-08-04T06:07:19;19.30;65.10
21734;DHT22;11029;47.820;10.534;2022-08-04T06:09:46;19.40;65.20
21734;DHT22;11029;47.820;10.534;2022-08-04T06:12:54;19.50;65.10
21734;DHT22;11029;47.820;10.534;2022-08-04T06:15:23;19.70;64.90
21734;DHT22;11029;47.820;10.534;2022-08-04T06:18:02;19.80;64.60
21734;DHT22;11029;47.820;10.534;2022-08-04T06:20:51;19.80;64.90
21734;DHT22;11029;47.820;10.534;2022-08-04T06:23:19;20.00;65.20
21734;DHT22;11029;47.820;10.534;2022-08-04T06:25:51;20.10;65.20
21734;DHT22;11029;47.820;10.534;2022-08-04T06:28:20;20.20;65.20
21734;DHT22;11029;47.820;10.534;2022-08-04T06:30:48;20.40;63.70
21734;DHT22;11029;47.820;10.534;2022-08-04T06:33:16;20.50;63.80
21734;DHT22;11029;47.820;10.534;2022-08-04T06:36:19;20.60;63.20
21734;DHT22;11029;47.820;10.534;2022-08-04T06:38:46;20.70;63.40
21734;DHT22;11029;47.820;10.534;2022-08-04T06:41:24;20.90;63.20
21734;DHT22;11029;47.820;10.534;2022-08-04T06:43:52;21.00;63.00
21734;DHT22;11029;47.820;10.534;2022-08-04T06:46:20;21.10;63.10
21734;DHT22;11029;47.820;10.534;2022-08-04T06:48:48;21.20;64.30
21734;DHT22;11029;47.820;10.534;2022-08-04T06:51:17;21.40;64.40
21734;DHT22;11029;47.820;10.534;2022-08-04T06:54:04;21.50;63.90
21734;DHT22;11029;47.820;10.534;2022-08-04T06:56:33;21.70;63.30
21734;DHT22;11029;47.820;10.534;2022-08-04T06:59:01;21.80;61.70
21734;DHT22;11029;47.820;10.534;2022-08-04T07:01:29;21.90;61.00
21734;DHT22;11029;47.820;10.534;2022-08-04T07:03:58;22.00;61.70
21734;DHT22;11029;47.820;10.534;2022-08-04T07:06:25;22.20;62.60
21734;DHT22;11029;47.820;10.534;2022-08-04T07:08:52;22.30;62.70
21734;DHT22;11029;47.820;10.534;2022-08-04T07:11:20;22.40;61.50
21734;DHT22;11029;47.820;10.534;2022-08-04T07:13:48;22.50;60.50
21734;DHT22;11029;47.820;10.534;2022-08-04T07:16:17;22.60;60.50
21734;DHT22;11029;47.820;10.534;2022-08-04T07:18:55;22.70;60.80
21734;DHT22;11029;47.820;10.534;2022-08-04T07:21:22;22.80;61.20
21734;DHT22;11029;47.820;10.534;2022-08-04T07:23:50;22.90;61.20
21734;DHT22;11029;47.820;10.534;2022-08-04T07:26:17;23.00;60.80
21734;DHT22;11029;47.820;10.534;2022-08-04T07:28:45;23.20;59.70
21734;DHT22;11029;47.820;10.534;2022-08-04T07:31:15;23.30;60.00
21734;DHT22;11029;47.820;10.534;2022-08-04T07:34:02;23.40;60.40
21734;DHT22;11029;47.820;10.534;2022-08-04T07:36:50;23.60;59.30
21734;DHT22;11029;47.820;10.534;2022-08-04T07:39:19;23.70;57.90
21734;DHT22;11029;47.820;10.534;2022-08-04T07:41:55;23.70;57.20
21734;DHT22;11029;47.820;10.534;2022-08-04T07:44:22;23.90;59.10
21734;DHT22;11029;47.820;10.534;2022-08-04T07:46:49;24.00;58.30
21734;DHT22;11029;47.820;10.534;2022-08-04T07:49:16;24.10;57.70
21734;DHT22;11029;47.820;10.534;2022-08-04T07:52:03;24.20;55.30
21734;DHT22;11029;47.820;10.534;2022-08-04T07:54:32;24.20;54.90
21734;DHT22;11029;47.820;10.534;2022-08-04T07:57:01;24.30;54.90
21734;DHT22;11029;47.820;10.534;2022-08-04T07:59:28;24.40;54.10
21734;DHT22;11029;47.820;10.534;2022-08-04T08:01:58;24.40;53.90
21734;DHT22;11029;47.820;10.534;2022-08-04T08:04:26;24.50;52.60
21734;DHT22;11029;47.820;10.534;2022-08-04T08:06:53;24.50;52.70
21734;DHT22;11029;47.820;10.534;2022-08-04T08:09:20;24.60;51.70
21734;DHT22;11029;47.820;10.534;2022-08-04T08:11:49;24.70;51.90
21734;DHT22;11029;47.820;10.534;2022-08-04T08:14:36;24.80;51.80
21734;DHT22;11029;47.820;10.534;2022-08-04T08:17:04;24.90;52.00
21734;DHT22;11029;47.820;10.534;2022-08-04T08:19:32;25.00;53.10
21734;DHT22;11029;47.820;10.534;2022-08-04T08:22:00;25.10;52.70
21734;DHT22;11029;47.820;10.534;2022-08-04T08:24:29;25.30;51.00
21734;DHT22;11029;47.820;10.534;2022-08-04T08:26:57;25.30;50.60
21734;DHT22;11029;47.820;10.534;2022-08-04T08:29:24;25.40;50.40
21734;DHT22;11029;47.820;10.534;2022-08-04T08:31:52;25.50;48.30
21734;DHT22;11029;47.820;10.534;2022-08-04T08:34:24;25.60;46.40
21734;DHT22;11029;47.820;10.534;2022-08-04T08:37:11;25.60;45.30
21734;DHT22;11029;47.820;10.534;2022-08-04T08:39:44;25.70;46.30
21734;DHT22;11029;47.820;10.534;2022-08-04T08:45:35;25.90;48.20
21734;DHT22;11029;47.820;10.534;2022-08-04T08:51:52;26.10;46.40
21734;DHT22;11029;47.820;10.534;2022-08-04T08:54:43;26.10;44.50
21734;DHT22;11029;47.820;10.534;2022-08-04T09:00:15;26.30;44.70
21734;DHT22;11029;47.820;10.534;2022-08-04T09:06:06;26.50;47.50
21734;DHT22;11029;47.820;10.534;2022-08-04T09:11:41;26.70;48.90
21734;DHT22;11029;47.820;10.534;2022-08-04T09:14:25;26.70;48.10
21734;DHT22;11029;47.820;10.534;2022-08-04T09:17:01;26.70;48.20
21734;DHT22;11029;47.820;10.534;2022-08-04T09:19:41;26.70;48.10
21734;DHT22;11029;47.820;10.534;2022-08-04T09:24:50;26.80;46.50
21734;DHT22;11029;47.820;10.534;2022-08-04T09:27:26;26.90;47.00
21734;DHT22;11029;47.820;10.534;2022-08-04T09:38:14;27.20;46.30
21734;DHT22;11029;47.820;10.534;2022-08-04T09:53:02;27.50;44.90
21734;DHT22;11029;47.820;10.534;2022-08-04T10:01:15;27.70;42.20
21734;DHT22;11029;47.820;10.534;2022-08-04T10:03:51;27.70;43.60
21734;DHT22;11029;47.820;10.534;2022-08-04T10:14:46;28.00;44.60
21734;DHT22;11029;47.820;10.534;2022-08-04T10:17:33;28.00;43.10
21734;DHT22;11029;47.820;10.534;2022-08-04T10:20:07;28.10;43.10
21734;DHT22;11029;47.820;10.534;2022-08-04T10:22:36;28.00;42.00
21734;DHT22;11029;47.820;10.534;2022-08-04T10:28:20;28.20;43.40
21734;DHT22;11029;47.820;10.534;2022-08-04T10:30:56;28.30;41.70
21734;DHT22;11029;47.820;10.534;2022-08-04T10:33:27;28.30;42.10
21734;DHT22;11029;47.820;10.534;2022-08-04T10:36:02;28.40;42.50
21734;DHT22;11029;47.820;10.534;2022-08-04T10:38:32;28.50;42.00
21734;DHT22;11029;47.820;10.534;2022-08-04T10:41:15;28.50;41.60
21734;DHT22;11029;47.820;10.534;2022-08-04T10:43:48;28.50;44.70
21734;DHT22;11029;47.820;10.534;2022-08-04T10:46:17;28.60;45.90
21734;DHT22;11029;47.820;10.534;2022-08-04T10:49:03;28.60;45.20
21734;DHT22;11029;47.820;10.534;2022-08-04T10:56:59;28.60;43.50
21734;DHT22;11029;47.820;10.534;2022-08-04T11:00:12;28.50;45.20
21734;DHT22;11029;47.820;10.534;2022-08-04T11:02:50;28.50;44.10
21734;DHT22;11029;47.820;10.534;2022-08-04T11:05:47;28.60;41.70
21734;DHT22;11029;47.820;10.534;2022-08-04T11:08:19;28.70;42.00
21734;DHT22;11029;47.820;10.534;2022-08-04T11:13:46;28.90;42.40
21734;DHT22;11029;47.820;10.534;2022-08-04T11:16:35;29.00;41.20
21734;DHT22;11029;47.820;10.534;2022-08-04T11:19:28;29.00;41.00
21734;DHT22;11029;47.820;10.534;2022-08-04T11:22:25;29.00;41.40
21734;DHT22;11029;47.820;10.534;2022-08-04T11:25:07;29.10;41.60
21734;DHT22;11029;47.820;10.534;2022-08-04T11:27:50;29.20;43.50
21734;DHT22;11029;47.820;10.534;2022-08-04T11:30:19;29.10;41.40
21734;DHT22;11029;47.820;10.534;2022-08-04T11:39:24;29.10;45.00
21734;DHT22;11029;47.820;10.534;2022-08-04T11:41:57;29.10;42.60
21734;DHT22;11029;47.820;10.534;2022-08-04T11:44:47;29.20;43.80
21734;DHT22;11029;47.820;10.534;2022-08-04T11:50:24;29.20;44.50
21734;DHT22;11029;47.820;10.534;2022-08-04T11:52:55;29.30;42.50
21734;DHT22;11029;47.820;10.534;2022-08-04T11:55:24;29.30;38.30
21734;DHT22;11029;47.820;10.534;2022-08-04T11:57:52;29.30;43.50
21734;DHT22;11029;47.820;10.534;2022-08-04T12:00:21;29.40;41.00
21734;DHT22;11029;47.820;10.534;2022-08-04T12:06:14;29.50;38.70
21734;DHT22;11029;47.820;10.534;2022-08-04T12:16:59;29.50;38.40
21734;DHT22;11029;47.820;10.534;2022-08-04T12:22:34;29.60;38.40
21734;DHT22;11029;47.820;10.534;2022-08-04T12:25:08;29.60;40.90
21734;DHT22;11029;47.820;10.534;2022-08-04T12:27:46;29.70;39.20
21734;DHT22;11029;47.820;10.534;2022-08-04T12:30:18;29.70;37.50
21734;DHT22;11029;47.820;10.534;2022-08-04T12:33:21;29.90;36.50
21734;DHT22;11029;47.820;10.534;2022-08-04T12:38:43;30.10;36.10
21734;DHT22;11029;47.820;10.534;2022-08-04T12:41:15;30.00;35.70
21734;DHT22;11029;47.820;10.534;2022-08-04T12:43:46;30.00;37.90
21734;DHT22;11029;47.820;10.534;2022-08-04T12:46:24;30.00;36.60
21734;DHT22;11029;47.820;10.534;2022-08-04T12:48:59;29.90;36.60
21734;DHT22;11029;47.820;10.534;2022-08-04T12:51:27;29.90;36.90
21734;DHT22;11029;47.820;10.534;2022-08-04T12:54:22;30.00;37.00
21734;DHT22;11029;47.820;10.534;2022-08-04T12:56:57;30.10;35.90
21734;DHT22;11029;47.820;10.534;2022-08-04T12:59:24;30.30;38.40
21734;DHT22;11029;47.820;10.534;2022-08-04T13:01:52;30.50;33.10
21734;DHT22;11029;47.820;10.534;2022-08-04T13:04:37;30.50;37.30
21734;DHT22;11029;47.820;10.534;2022-08-04T13:07:23;30.50;37.00
21734;DHT22;11029;47.820;10.534;2022-08-04T13:09:51;30.60;34.20
21734;DHT22;11029;47.820;10.534;2022-08-04T13:12:25;30.70;32.00
21734;DHT22;11029;47.820;10.534;2022-08-04T13:15:10;30.70;30.30
21734;DHT22;11029;47.820;10.534;2022-08-04T13:20:16;30.80;32.40
21734;DHT22;11029;47.820;10.534;2022-08-04T13:22:49;30.70;33.00
21734;DHT22;11029;47.820;10.534;2022-08-04T13:25:18;30.70;31.80
21734;DHT22;11029;47.820;10.534;2022-08-04T13:28:12;30.60;32.30
21734;DHT22;11029;47.820;10.534;2022-08-04T13:30:39;30.70;33.40
21734;DHT22;11029;47.820;10.534;2022-08-04T13:33:07;30.60;33.90
21734;DHT22;11029;47.820;10.534;2022-08-04T13:35:35;30.60;32.70
21734;DHT22;11029;47.820;10.534;2022-08-04T13:38:23;30.70;31.80
21734;DHT22;11029;47.820;10.534;2022-08-04T13:40:51;30.80;32.70
21734;DHT22;11029;47.820;10.534;2022-08-04T13:43:47;30.80;32.80
21734;DHT22;11029;47.820;10.534;2022-08-04T13:46:39;31.00;31.10
21734;DHT22;11029;47.820;10.534;2022-08-04T13:49:17;31.20;32.80
21734;DHT22;11029;47.820;10.534;2022-08-04T13:52:06;31.30;32.70
21734;DHT22;11029;47.820;10.534;2022-08-04T13:54:46;31.50;32.30
21734;DHT22;11029;47.820;10.534;2022-08-04T13:57:20;31.10;30.60
21734;DHT22;11029;47.820;10.534;2022-08-04T13:59:52;30.90;32.20
21734;DHT22;11029;47.820;10.534;2022-08-04T14:02:33;31.00;32.20
21734;DHT22;11029;47.820;10.534;2022-08-04T14:05:14;31.10;33.20
21734;DHT22;11029;47.820;10.534;2022-08-04T14:07:46;31.30;32.00
21734;DHT22;11029;47.820;10.534;2022-08-04T14:10:15;31.20;31.60
21734;DHT22;11029;47.820;10.534;2022-08-04T14:12:46;31.30;31.00
21734;DHT22;11029;47.820;10.534;2022-08-04T14:15:37;31.50;29.30
21734;DHT22;11029;47.820;10.534;2022-08-04T14:18:27;31.60;29.70
21734;DHT22;11029;47.820;10.534;2022-08-04T14:21:10;31.90;30.30
21734;DHT22;11029;47.820;10.534;2022-08-04T14:23:39;31.90;30.00
21734;DHT22;11029;47.820;10.534;2022-08-04T14:28:44;31.80;32.30
21734;DHT22;11029;47.820;10.534;2022-08-04T14:31:31;31.70;30.00
21734;DHT22;11029;47.820;10.534;2022-08-04T14:33:58;31.80;30.70
21734;DHT22;11029;47.820;10.534;2022-08-04T14:36:42;31.90;29.80
21734;DHT22;11029;47.820;10.534;2022-08-04T14:39:40;32.00;30.00
21734;DHT22;11029;47.820;10.534;2022-08-04T14:42:46;32.30;28.40
21734;DHT22;11029;47.820;10.534;2022-08-04T14:45:31;32.20;29.50
21734;DHT22;11029;47.820;10.534;2022-08-04T14:47:59;31.80;30.90
21734;DHT22;11029;47.820;10.534;2022-08-04T14:53:07;31.50;30.10
21734;DHT22;11029;47.820;10.534;2022-08-04T14:55:35;31.40;30.30
21734;DHT22;11029;47.820;10.534;2022-08-04T14:58:03;31.40;30.00
21734;DHT22;11029;47.820;10.534;2022-08-04T15:00:52;31.70;29.20
21734;DHT22;11029;47.820;10.534;2022-08-04T15:03:20;32.10;31.60
21734;DHT22;11029;47.820;10.534;2022-08-04T15:05:50;32.40;32.40
21734;DHT22;11029;47.820;10.534;2022-08-04T15:08:31;32.30;31.20
21734;DHT22;11029;47.820;10.534;2022-08-04T15:10:59;32.30;31.40
21734;DHT22;11029;47.820;10.534;2022-08-04T15:13:30;32.10;33.20
21734;DHT22;11029;47.820;10.534;2022-08-04T15:15:58;32.00;31.20
21734;DHT22;11029;47.820;10.534;2022-08-04T15:18:36;31.70;32.70
21734;DHT22;11029;47.820;10.534;2022-08-04T15:21:05;31.60;30.80
21734;DHT22;11029;47.820;10.534;2022-08-04T15:23:32;31.60;31.00
21734;DHT22;11029;47.820;10.534;2022-08-04T15:26:09;31.70;32.50
21734;DHT22;11029;47.820;10.534;2022-08-04T15:28:38;31.70;32.50
21734;DHT22;11029;47.820;10.534;2022-08-04T15:31:07;31.70;31.60
21734;DHT22;11029;47.820;10.534;2022-08-04T15:33:55;31.80;30.70
21734;DHT22;11029;47.820;10.534;2022-08-04T15:36:46;32.20;33.20
21734;DHT22;11029;47.820;10.534;2022-08-04T15:39:33;32.40;30.50
21734;DHT22;11029;47.820;10.534;2022-08-04T15:42:31;32.50;32.40
21734;DHT22;11029;47.820;10.534;2022-08-04T15:45:03;32.70;31.50
21734;DHT22;11029;47.820;10.534;2022-08-04T15:47:38;32.50;30.90
21734;DHT22;11029;47.820;10.534;2022-08-04T15:50:09;32.30;30.10
21734;DHT22;11029;47.820;10.534;2022-08-04T15:55:39;32.20;30.90
21734;DHT22;11029;47.820;10.534;2022-08-04T16:09:00;35.00;28.20
21734;DHT22;11029;47.820;10.534;2022-08-04T16:19:27;37.60;25.90
21734;DHT22;11029;47.820;10.534;2022-08-04T16:22:02;37.90;24.20
21734;DHT22;11029;47.820;10.534;2022-08-04T16:24:35;37.90;24.20
21734;DHT22;11029;47.820;10.534;2022-08-04T16:27:07;38.10;24.00
21734;DHT22;11029;47.820;10.534;2022-08-04T16:29:41;38.10;23.90
21734;DHT22;11029;47.820;10.534;2022-08-04T16:34:44;38.70;22.70
21734;DHT22;11029;47.820;10.534;2022-08-04T16:37:22;38.40;23.30
21734;DHT22;11029;47.820;10.534;2022-08-04T16:43:21;39.20;23.10
21734;DHT22;11029;47.820;10.534;2022-08-04T16:48:27;40.10;23.40
21734;DHT22;11029;47.820;10.534;2022-08-04T16:51:05;39.60;23.70
21734;DHT22;11029;47.820;10.534;2022-08-04T16:53:43;39.10;22.30
21734;DHT22;11029;47.820;10.534;2022-08-04T16:56:31;38.80;24.20
21734;DHT22;11029;47.820;10.534;2022-08-04T16:59:08;38.40;23.20
21734;DHT22;11029;47.820;10.534;2022-08-04T17:01:36;38.00;23.30
21734;DHT22;11029;47.820;10.534;2022-08-04T17:04:03;38.00;23.50
21734;DHT22;11029;47.820;10.534;2022-08-04T17:06:39;37.70;24.50
21734;DHT22;11029;47.820;10.534;2022-08-04T17:09:16;37.70;24.90
21734;DHT22;11029;47.820;10.534;2022-08-04T17:11:44;37.80;25.70
21734;DHT22;11029;47.820;10.534;2022-08-04T17:14:12;38.30;26.10
21734;DHT22;11029;47.820;10.534;2022-08-04T17:16:41;38.80;25.60
21734;DHT22;11029;47.820;10.534;2022-08-04T17:19:08;39.00;24.30
21734;DHT22;11029;47.820;10.534;2022-08-04T17:22:12;39.30;24.50
21734;DHT22;11029;47.820;10.534;2022-08-04T17:24:39;40.20;23.90
21734;DHT22;11029;47.820;10.534;2022-08-04T17:27:06;40.50;24.40
21734;DHT22;11029;47.820;10.534;2022-08-04T17:29:54;40.90;23.60
21734;DHT22;11029;47.820;10.534;2022-08-04T17:32:21;40.70;24.00
21734;DHT22;11029;47.820;10.534;2022-08-04T17:34:53;41.00;24.10
21734;DHT22;11029;47.820;10.534;2022-08-04T17:37:21;41.00;23.70
21734;DHT22;11029;47.820;10.534;2022-08-04T17:40:13;41.00;24.20
21734;DHT22;11029;47.820;10.534;2022-08-04T17:43:06;41.00;24.30
21734;DHT22;11029;47.820;10.534;2022-08-04T17:46:15;41.30;24.10
21734;DHT22;11029;47.820;10.534;2022-08-04T17:49:03;41.30;24.30
21734;DHT22;11029;47.820;10.534;2022-08-04T17:54:30;40.50;24.90
21734;DHT22;11029;47.820;10.534;2022-08-04T17:57:18;40.50;25.10
21734;DHT22;11029;47.820;10.534;2022-08-04T17:59:52;40.20;25.80
21734;DHT22;11029;47.820;10.534;2022-08-04T18:02:31;40.30;25.60
21734;DHT22;11029;47.820;10.534;2022-08-04T18:05:04;40.30;26.60
21734;DHT22;11029;47.820;10.534;2022-08-04T18:07:41;40.20;26.80
21734;DHT22;11029;47.820;10.534;2022-08-04T18:10:39;39.80;27.20
21734;DHT22;11029;47.820;10.534;2022-08-04T18:13:25;39.70;27.30
21734;DHT22;11029;47.820;10.534;2022-08-04T18:16:00;39.20;28.70
21734;DHT22;11029;47.820;10.534;2022-08-04T18:18:28;38.40;30.20
21734;DHT22;11029;47.820;10.534;2022-08-04T18:20:55;37.60;31.50
21734;DHT22;11029;47.820;10.534;2022-08-04T18:23:43;37.10;32.40
21734;DHT22;11029;47.820;10.534;2022-08-04T18:26:17;36.00;33.50
21734;DHT22;11029;47.820;10.534;2022-08-04T18:28:49;35.30;33.40
21734;DHT22;11029;47.820;10.534;2022-08-04T18:31:16;34.50;34.60
21734;DHT22;11029;47.820;10.534;2022-08-04T18:33:43;33.70;35.80
21734;DHT22;11029;47.820;10.534;2022-08-04T18:36:22;32.80;36.70
21734;DHT22;11029;47.820;10.534;2022-08-04T18:39:03;32.00;37.80
21734;DHT22;11029;47.820;10.534;2022-08-04T18:41:42;31.20;39.10
21734;DHT22;11029;47.820;10.534;2022-08-04T18:44:29;30.70;39.80
21734;DHT22;11029;47.820;10.534;2022-08-04T18:46:57;30.20;40.70
21734;DHT22;11029;47.820;10.534;2022-08-04T18:49:44;30.00;42.30
21734;DHT22;11029;47.820;10.534;2022-08-04T18:52:31;29.60;42.10
21734;DHT22;11029;47.820;10.534;2022-08-04T18:54:59;29.10;43.20
21734;DHT22;11029;47.820;10.534;2022-08-04T18:57:28;28.90;45.00
21734;DHT22;11029;47.820;10.534;2022-08-04T19:00:16;28.60;43.80
21734;DHT22;11029;47.820;10.534;2022-08-04T19:02:45;28.10;44.90
21734;DHT22;11029;47.820;10.534;2022-08-04T19:05:13;27.70;46.70
21734;DHT22;11029;47.820;10.534;2022-08-04T19:07:43;27.40;47.60
21734;DHT22;11029;47.820;10.534;2022-08-04T19:10:30;27.30;47.90
21734;DHT22;11029;47.820;10.534;2022-08-04T19:12:57;27.30;47.80
21734;DHT22;11029;47.820;10.534;2022-08-04T19:15:25;27.20;48.10
21734;DHT22;11029;47.820;10.534;2022-08-04T19:18:00;27.20;48.20
21734;DHT22;11029;47.820;10.534;2022-08-04T19:20:28;27.10;48.20
21734;DHT22;11029;47.820;10.534;2022-08-04T19:22:56;26.90;48.70
21734;DHT22;11029;47.820;10.534;2022-08-04T19:25:44;26.60;49.40
21734;DHT22;11029;47.820;10.534;2022-08-04T19:28:33;26.30;49.00
21734;DHT22;11029;47.820;10.534;2022-08-04T19:31:06;26.10;49.60
21734;DHT22;11029;47.820;10.534;2022-08-04T19:33:33;26.00;49.40
21734;DHT22;11029;47.820;10.534;2022-08-04T19:36:21;25.90;50.00
21734;DHT22;11029;47.820;10.534;2022-08-04T19:38:55;26.00;50.20
21734;DHT22;11029;47.820;10.534;2022-08-04T19:41:24;25.90;50.40
21734;DHT22;11029;47.820;10.534;2022-08-04T19:43:52;25.80;50.40
21734;DHT22;11029;47.820;10.534;2022-08-04T19:46:19;25.50;51.10
21734;DHT22;11029;47.820;10.534;2022-08-04T19:48:50;25.40;51.50
21734;DHT22;11029;47.820;10.534;2022-08-04T19:51:27;25.30;51.50
21734;DHT22;11029;47.820;10.534;2022-08-04T19:53:54;25.10;52.00
21734;DHT22;11029;47.820;10.534;2022-08-04T19:56:33;25.00;51.80
21734;DHT22;11029;47.820;10.534;2022-08-04T19:59:07;24.80;52.00
21734;DHT22;11029;47.820;10.534;2022-08-04T20:01:34;24.70;52.20
21734;DHT22;11029;47.820;10.534;2022-08-04T20:04:12;24.60;52.20
21734;DHT22;11029;47.820;10.534;2022-08-04T20:06:39;24.50;52.40
21734;DHT22;11029;47.820;10.534;2022-08-04T20:09:07;24.50;52.40
21734;DHT22;11029;47.820;10.534;2022-08-04T20:11:50;24.50;51.50
21734;DHT22;11029;47.820;10.534;2022-08-04T20:14:18;24.30;52.00
21734;DHT22;11029;47.820;10.534;2022-08-04T20:16:57;24.40;52.10